sensor_id;sensor_type;location;lat;lon;timestamp;pressure;altitude;pressure_sealevel;temperature;humidity
31044;BME280;17710;52.520;13.352;2022-12-07T00:01:19;100958.34;;;6.63;64.79
31044;BME280;17710;52.520;13.352;2022-12-07T00:03:47;100960.06;;;6.66;64.99
31044;BME280;17710;52.520;13.352;2022-12-07T00:06:15;100960.56;;;6.89;65.01
31044;BME280;17710;52.520;13.352;2022-12-07T00:08:42;100960.50;;;6.37;66.26
31044;BME280;17710;52.520;13.352;2022-12-07T00:11:11;100955.00;;;6.54;65.41
31044;BME280;17710;52.520;13.352;2022-12-07T00:13:39;100944.72;;;6.40;64.36
31044;BME280;17710;52.520;13.352;2022-12-07T00:16:08;100941.16;;;6.44;64.87
31044;BME280;17710;52.520;13.352;2022-12-07T00:18:37;100945.31;;;6.57;63.72
31044;BME280;17710;52.520;13.352;2022-12-07T00:21:05;100943.56;;;6.58;63.33
31044;BME280;17710;52.520;13.352;2022-12-07T00:23:33;100939.56;;;6.88;62.61
31044;BME280;17710;52.520;13.352;2022-12-07T00:26:04;100944.53;;;7.03;62.36
31044;BME280;17710;52.520;13.352;2022-12-07T00:28:30;100931.84;;;7.26;61.75
31044;BME280;17710;52.520;13.352;2022-12-07T00:31:00;100935.91;;;7.42;61.11
31044;BME280;17710;52.520;13.352;2022-12-07T00:33:27;100930.34;;;7.13;60.69
31044;BME280;17710;52.520;13.352;2022-12-07T00:35:56;100925.44;;;6.95;61.12
31044;BME280;17710;52.520;13.352;2022-12-07T00:38:22;100934.22;;;6.94;61.53
31044;BME280;17710;52.520;13.352;2022-12-07T00:40:54;100928.63;;;7.10;60.47
31044;BME280;17710;52.520;13.352;2022-12-07T00:43:21;100927.06;;;7.02;59.83
31044;BME280;17710;52.520;13.352;2022-12-07T00:45:47;100932.69;;;6.80;60.82
31044;BME280;17710;52.520;13.352;2022-12-07T00:48:14;100926.06;;;6.58;60.73
31044;BME280;17710;52.520;13.352;2022-12-07T00:50:40;100921.75;;;6.54;60.67
31044;BME280;17710;52.520;13.352;2022-12-07T00:53:08;100922.44;;;6.64;60.57
31044;BME280;17710;52.520;13.352;2022-12-07T00:55:35;100924.06;;;6.72;59.79
31044;BME280;17710;52.520;13.352;2022-12-07T00:58:02;100917.06;;;6.73;59.62
31044;BME280;17710;52.520;13.352;2022-12-07T01:00:29;100918.97;;;6.63;59.41
31044;BME280;17710;52.520;13.352;2022-12-07T01:02:56;100915.94;;;6.86;58.56
31044;BME280;17710;52.520;13.352;2022-12-07T01:05:23;100914.44;;;6.73;58.14
31044;BME280;17710;52.520;13.352;2022-12-07T01:07:50;100913.63;;;6.69;58.75
31044;BME280;17710;52.520;13.352;2022-12-07T01:10:18;100910.06;;;6.72;59.16
31044;BME280;17710;52.520;13.352;2022-12-07T01:12:45;100916.28;;;6.68;59.58
31044;BME280;17710;52.520;13.352;2022-12-07T01:15:11;100905.94;;;6.57;58.91
31044;BME280;17710;52.520;13.352;2022-12-07T01:17:38;100894.75;;;6.46;59.10
31044;BME280;17710;52.520;13.352;2022-12-07T01:20:06;100896.06;;;6.73;58.70
31044;BME280;17710;52.520;13.352;2022-12-07T01:22:36;100896.47;;;6.98;58.65
31044;BME280;17710;52.520;13.352;2022-12-07T01:25:04;100898.22;;;6.99;57.73
31044;BME280;17710;52.520;13.352;2022-12-07T01:27:32;100892.97;;;6.97;57.85
31044;BME280;17710;52.520;13.352;2022-12-07T01:29:59;100896.72;;;6.84;58.38
31044;BME280;17710;52.520;13.352;2022-12-07T01:32:27;100891.06;;;7.05;57.81
31044;BME280;17710;52.520;13.352;2022-12-07T01:34:53;100886.69;;;7.06;57.17
31044;BME280;17710;52.520;13.352;2022-12-07T01:37:20;100889.31;;;7.07;57.31
31044;BME280;17710;52.520;13.352;2022-12-07T01:39:48;100888.44;;;7.07;57.54
31044;BME280;17710;52.520;13.352;2022-12-07T01:42:15;100882.81;;;6.77;57.25
31044;BME280;17710;52.520;13.352;2022-12-07T01:45:34;100890.16;;;7.08;57.05
31044;BME280;17710;52.520;13.352;2022-12-07T01:48:04;100880.53;;;7.07;57.01
31044;BME280;17710;52.520;13.352;2022-12-07T01:50:31;100879.53;;;7.14;56.89
31044;BME280;17710;52.520;13.352;2022-12-07T01:52:59;100879.72;;;7.03;57.34
31044;BME280;17710;52.520;13.352;2022-12-07T01:55:28;100872.81;;;6.98;57.39
31044;BME280;17710;52.520;13.352;2022-12-07T01:57:56;100874.00;;;7.28;56.68
31044;BME280;17710;52.520;13.352;2022-12-07T02:00:23;100861.94;;;7.16;56.90
31044;BME280;17710;52.520;13.352;2022-12-07T02:02:54;100871.25;;;7.34;57.00
31044;BME280;17710;52.520;13.352;2022-12-07T02:05:23;100860.34;;;7.09;56.89
31044;BME280;17710;52.520;13.352;2022-12-07T02:07:51;100859.31;;;7.16;56.19
31044;BME280;17710;52.520;13.352;2022-12-07T02:10:21;100859.31;;;7.16;56.30
31044;BME280;17710;52.520;13.352;2022-12-07T02:12:51;100850.78;;;7.06;56.43
31044;BME280;17710;52.520;13.352;2022-12-07T02:15:20;100848.31;;;6.97;56.86
31044;BME280;17710;52.520;13.352;2022-12-07T02:17:54;100857.06;;;6.98;56.77
31044;BME280;17710;52.520;13.352;2022-12-07T02:20:28;100846.56;;;6.98;57.47
31044;BME280;17710;52.520;13.352;2022-12-07T02:23:29;100851.06;;;6.90;57.05
31044;BME280;17710;52.520;13.352;2022-12-07T02:26:28;100850.31;;;6.83;57.53
31044;BME280;17710;52.520;13.352;2022-12-07T02:29:11;100848.34;;;6.96;57.67
31044;BME280;17710;52.520;13.352;2022-12-07T02:34:48;100837.41;;;6.72;58.13
31044;BME280;17710;52.520;13.352;2022-12-07T02:37:24;100828.53;;;6.78;58.22
31044;BME280;17710;52.520;13.352;2022-12-07T02:39:54;100824.44;;;6.63;58.71
31044;BME280;17710;52.520;13.352;2022-12-07T02:42:26;100818.41;;;6.57;59.06
31044;BME280;17710;52.520;13.352;2022-12-07T02:44:54;100813.13;;;6.60;59.05
31044;BME280;17710;52.520;13.352;2022-12-07T02:47:22;100816.00;;;6.46;59.84
31044;BME280;17710;52.520;13.352;2022-12-07T02:49:51;100822.59;;;6.68;59.47
31044;BME280;17710;52.520;13.352;2022-12-07T02:52:18;100817.25;;;6.73;59.09
31044;BME280;17710;52.520;13.352;2022-12-07T02:54:45;100811.78;;;6.84;58.70
31044;BME280;17710;52.520;13.352;2022-12-07T02:57:28;100804.75;;;6.86;59.01
31044;BME280;17710;52.520;13.352;2022-12-07T03:00:04;100810.41;;;6.64;58.96
31044;BME280;17710;52.520;13.352;2022-12-07T03:02:38;100813.50;;;6.88;59.37
31044;BME280;17710;52.520;13.352;2022-12-07T03:05:15;100806.25;;;6.99;58.89
31044;BME280;17710;52.520;13.352;2022-12-07T03:07:49;100806.22;;;7.02;58.51
31044;BME280;17710;52.520;13.352;2022-12-07T03:10:22;100792.53;;;6.85;59.20
31044;BME280;17710;52.520;13.352;2022-12-07T03:12:59;100783.63;;;6.92;59.12
31044;BME280;17710;52.520;13.352;2022-12-07T03:15:32;100783.63;;;6.92;59.41
31044;BME280;17710;52.520;13.352;2022-12-07T03:18:01;100782.34;;;7.12;59.13
31044;BME280;17710;52.520;13.352;2022-12-07T03:20:29;100778.44;;;6.89;59.47
31044;BME280;17710;52.520;13.352;2022-12-07T03:22:59;100779.13;;;6.97;59.35
31044;BME280;17710;52.520;13.352;2022-12-07T03:25:26;100779.25;;;6.92;59.72
31044;BME280;17710;52.520;13.352;2022-12-07T03:27:57;100769.91;;;7.20;59.03
31044;BME280;17710;52.520;13.352;2022-12-07T03:30:28;100772.75;;;7.10;59.03
31044;BME280;17710;52.520;13.352;2022-12-07T03:33:02;100758.66;;;7.14;59.09
31044;BME280;17710;52.520;13.352;2022-12-07T03:35:33;100745.81;;;7.40;58.78
31044;BME280;17710;52.520;13.352;2022-12-07T03:38:08;100739.25;;;7.19;58.92
31044;BME280;17710;52.520;13.352;2022-12-07T03:40:44;100743.06;;;7.05;59.41
31044;BME280;17710;52.520;13.352;2022-12-07T03:43:15;100741.16;;;7.13;59.33
31044;BME280;17710;52.520;13.352;2022-12-07T03:45:43;100732.38;;;7.14;59.24
31044;BME280;17710;52.520;13.352;2022-12-07T03:48:20;100727.94;;;7.16;59.48
31044;BME280;17710;52.520;13.352;2022-12-07T03:50:51;100722.22;;;7.37;58.99
31044;BME280;17710;52.520;13.352;2022-12-07T03:53:22;100716.09;;;7.35;59.07
31044;BME280;17710;52.520;13.352;2022-12-07T03:55:52;100708.34;;;7.31;59.16
31044;BME280;17710;52.520;13.352;2022-12-07T03:58:21;100715.50;;;7.24;59.59
31044;BME280;17710;52.520;13.352;2022-12-07T04:00:49;100706.28;;;7.05;60.17
31044;BME280;17710;52.520;13.352;2022-12-07T04:03:17;100704.56;;;7.04;60.30
31044;BME280;17710;52.520;13.352;2022-12-07T04:05:44;100701.72;;;7.14;60.32
31044;BME280;17710;52.520;13.352;2022-12-07T04:08:11;100709.06;;;6.99;60.43
31044;BME280;17710;52.520;13.352;2022-12-07T04:10:38;100702.91;;;7.00;61.26
31044;BME280;17710;52.520;13.352;2022-12-07T04:13:04;100690.59;;;7.02;61.04
31044;BME280;17710;52.520;13.352;2022-12-07T04:15:31;100693.13;;;7.06;60.88
31044;BME280;17710;52.520;13.352;2022-12-07T04:17:57;100694.47;;;7.24;60.50
31044;BME280;17710;52.520;13.352;2022-12-07T04:20:26;100685.28;;;7.03;61.19
31044;BME280;17710;52.520;13.352;2022-12-07T04:22:52;100687.03;;;7.04;60.97
31044;BME280;17710;52.520;13.352;2022-12-07T04:25:19;100685.38;;;7.00;61.62
31044;BME280;17710;52.520;13.352;2022-12-07T04:27:45;100681.03;;;6.99;62.00
31044;BME280;17710;52.520;13.352;2022-12-07T04:30:12;100676.13;;;6.83;62.03
31044;BME280;17710;52.520;13.352;2022-12-07T04:32:39;100674.72;;;7.08;61.52
31044;BME280;17710;52.520;13.352;2022-12-07T04:35:06;100668.63;;;7.04;62.21
31044;BME280;17710;52.520;13.352;2022-12-07T04:37:34;100661.25;;;7.22;61.54
31044;BME280;17710;52.520;13.352;2022-12-07T04:40:00;100659.41;;;7.25;61.59
31044;BME280;17710;52.520;13.352;2022-12-07T04:42:27;100657.13;;;7.10;62.05
31044;BME280;17710;52.520;13.352;2022-12-07T04:44:54;100651.31;;;6.96;62.21
31044;BME280;17710;52.520;13.352;2022-12-07T04:47:20;100655.38;;;7.09;62.39
31044;BME280;17710;52.520;13.352;2022-12-07T04:49:47;100658.84;;;7.11;62.59
31044;BME280;17710;52.520;13.352;2022-12-07T04:52:13;100653.72;;;7.06;62.47
31044;BME280;17710;52.520;13.352;2022-12-07T04:54:41;100651.88;;;7.10;62.92
31044;BME280;17710;52.520;13.352;2022-12-07T04:57:08;100657.66;;;7.26;62.31
31044;BME280;17710;52.520;13.352;2022-12-07T04:59:34;100650.34;;;7.00;63.24
31044;BME280;17710;52.520;13.352;2022-12-07T05:02:01;100643.38;;;6.99;63.29
31044;BME280;17710;52.520;13.352;2022-12-07T05:04:28;100648.50;;;7.03;63.80
31044;BME280;17710;52.520;13.352;2022-12-07T05:06:54;100641.63;;;6.98;63.83
31044;BME280;17710;52.520;13.352;2022-12-07T05:09:21;100642.38;;;7.03;63.68
31044;BME280;17710;52.520;13.352;2022-12-07T05:11:48;100642.00;;;7.21;63.27
31044;BME280;17710;52.520;13.352;2022-12-07T05:14:16;100639.19;;;6.90;64.48
31044;BME280;17710;52.520;13.352;2022-12-07T05:16:45;100647.75;;;6.98;64.24
31044;BME280;17710;52.520;13.352;2022-12-07T05:19:12;100644.47;;;7.27;63.97
31044;BME280;17710;52.520;13.352;2022-12-07T05:21:39;100634.91;;;7.23;64.01
31044;BME280;17710;52.520;13.352;2022-12-07T05:24:06;100630.66;;;7.19;63.92
31044;BME280;17710;52.520;13.352;2022-12-07T05:26:34;100632.28;;;7.23;63.88
31044;BME280;17710;52.520;13.352;2022-12-07T05:29:04;100633.69;;;7.01;64.92
31044;BME280;17710;52.520;13.352;2022-12-07T05:31:31;100637.09;;;7.04;65.20
31044;BME280;17710;52.520;13.352;2022-12-07T05:33:57;100626.22;;;7.21;64.42
31044;BME280;17710;52.520;13.352;2022-12-07T05:36:24;100628.94;;;7.16;64.81
31044;BME280;17710;52.520;13.352;2022-12-07T05:38:53;100623.25;;;6.98;65.84
31044;BME280;17710;52.520;13.352;2022-12-07T05:41:20;100628.22;;;7.10;65.47
31044;BME280;17710;52.520;13.352;2022-12-07T05:44:05;100626.56;;;7.06;65.63
31044;BME280;17710;52.520;13.352;2022-12-07T05:46:32;100618.94;;;7.32;64.76
31044;BME280;17710;52.520;13.352;2022-12-07T05:48:59;100624.66;;;7.12;65.41
31044;BME280;17710;52.520;13.352;2022-12-07T05:51:25;100606.09;;;7.20;65.38
31044;BME280;17710;52.520;13.352;2022-12-07T05:53:51;100607.91;;;7.16;65.69
31044;BME280;17710;52.520;13.352;2022-12-07T05:56:18;100612.31;;;7.16;65.79
31044;BME280;17710;52.520;13.352;2022-12-07T05:58:44;100602.50;;;7.22;65.46
31044;BME280;17710;52.520;13.352;2022-12-07T06:01:30;100592.63;;;7.34;65.52
31044;BME280;17710;52.520;13.352;2022-12-07T06:03:57;100594.81;;;7.50;64.75
31044;BME280;17710;52.520;13.352;2022-12-07T06:06:23;100592.00;;;7.58;64.75
31044;BME280;17710;52.520;13.352;2022-12-07T06:08:52;100583.09;;;7.64;64.20
31044;BME280;17710;52.520;13.352;2022-12-07T06:11:19;100587.72;;;7.54;65.22
31044;BME280;17710;52.520;13.352;2022-12-07T06:14:04;100573.22;;;7.72;64.51
31044;BME280;17710;52.520;13.352;2022-12-07T06:16:31;100582.81;;;7.74;64.14
31044;BME280;17710;52.520;13.352;2022-12-07T06:18:58;100581.31;;;7.64;64.65
31044;BME280;17710;52.520;13.352;2022-12-07T06:21:24;100586.81;;;7.55;65.29
31044;BME280;17710;52.520;13.352;2022-12-07T06:23:55;100573.34;;;7.33;65.95
31044;BME280;17710;52.520;13.352;2022-12-07T06:26:23;100577.66;;;7.36;65.83
31044;BME280;17710;52.520;13.352;2022-12-07T06:28:50;100579.56;;;7.29;66.09
31044;BME280;17710;52.520;13.352;2022-12-07T06:31:16;100581.59;;;7.18;66.02
31044;BME280;17710;52.520;13.352;2022-12-07T06:33:44;100574.59;;;7.18;66.65
31044;BME280;17710;52.520;13.352;2022-12-07T06:36:11;100579.81;;;7.20;67.01
31044;BME280;17710;52.520;13.352;2022-12-07T06:38:38;100577.63;;;7.37;66.32
31044;BME280;17710;52.520;13.352;2022-12-07T06:41:05;100577.56;;;7.40;66.08
31044;BME280;17710;52.520;13.352;2022-12-07T06:43:32;100575.03;;;7.36;66.29
31044;BME280;17710;52.520;13.352;2022-12-07T06:45:58;100567.41;;;7.25;66.71
31044;BME280;17710;52.520;13.352;2022-12-07T06:48:25;100579.53;;;7.31;66.50
31044;BME280;17710;52.520;13.352;2022-12-07T06:50:53;100572.63;;;7.28;67.12
31044;BME280;17710;52.520;13.352;2022-12-07T06:53:20;100575.94;;;6.99;68.02
31044;BME280;17710;52.520;13.352;2022-12-07T06:55:46;100564.34;;;7.08;68.16
31044;BME280;17710;52.520;13.352;2022-12-07T06:58:13;100571.50;;;7.37;67.32
31044;BME280;17710;52.520;13.352;2022-12-07T07:00:39;100564.50;;;7.36;66.98
31044;BME280;17710;52.520;13.352;2022-12-07T07:03:06;100576.25;;;7.56;66.88
31044;BME280;17710;52.520;13.352;2022-12-07T07:05:32;100561.22;;;7.61;66.24
31044;BME280;17710;52.520;13.352;2022-12-07T07:08:01;100566.88;;;7.46;66.92
31044;BME280;17710;52.520;13.352;2022-12-07T07:10:27;100573.94;;;7.44;67.35
31044;BME280;17710;52.520;13.352;2022-12-07T07:12:54;100578.81;;;7.59;66.73
31044;BME280;17710;52.520;13.352;2022-12-07T07:15:21;100573.47;;;7.63;66.60
31044;BME280;17710;52.520;13.352;2022-12-07T07:17:48;100575.28;;;7.27;67.70
31044;BME280;17710;52.520;13.352;2022-12-07T07:20:14;100574.13;;;7.37;67.93
31044;BME280;17710;52.520;13.352;2022-12-07T07:22:41;100572.50;;;7.33;67.67
31044;BME280;17710;52.520;13.352;2022-12-07T07:25:12;100568.19;;;7.29;67.92
31044;BME280;17710;52.520;13.352;2022-12-07T07:27:39;100575.09;;;7.34;67.47
31044;BME280;17710;52.520;13.352;2022-12-07T07:30:07;100575.91;;;7.36;66.79
31044;BME280;17710;52.520;13.352;2022-12-07T07:32:33;100575.09;;;7.34;67.01
31044;BME280;17710;52.520;13.352;2022-12-07T07:35:00;100576.25;;;7.56;66.55
31044;BME280;17710;52.520;13.352;2022-12-07T07:37:26;100566.34;;;7.68;66.13
31044;BME280;17710;52.520;13.352;2022-12-07T07:39:53;100561.72;;;7.42;65.94
31044;BME280;17710;52.520;13.352;2022-12-07T07:42:21;100567.78;;;7.45;66.27
31044;BME280;17710;52.520;13.352;2022-12-07T07:44:47;100572.84;;;7.53;66.04
31044;BME280;17710;52.520;13.352;2022-12-07T07:47:16;100572.19;;;7.45;65.97
31044;BME280;17710;52.520;13.352;2022-12-07T07:49:43;100571.31;;;7.44;66.10
31044;BME280;17710;52.520;13.352;2022-12-07T07:52:09;100573.78;;;7.50;65.45
31044;BME280;17710;52.520;13.352;2022-12-07T07:54:36;100566.56;;;7.58;65.03
31044;BME280;17710;52.520;13.352;2022-12-07T07:57:03;100573.19;;;7.39;65.36
31044;BME280;17710;52.520;13.352;2022-12-07T07:59:31;100582.25;;;7.61;64.88
31044;BME280;17710;52.520;13.352;2022-12-07T08:01:57;100587.91;;;7.46;64.89
31044;BME280;17710;52.520;13.352;2022-12-07T08:04:25;100576.75;;;7.71;64.31
31044;BME280;17710;52.520;13.352;2022-12-07T08:06:52;100590.31;;;7.88;63.55
31044;BME280;17710;52.520;13.352;2022-12-07T08:09:18;100577.81;;;7.64;64.17
31044;BME280;17710;52.520;13.352;2022-12-07T08:11:45;100583.25;;;7.90;63.98
31044;BME280;17710;52.520;13.352;2022-12-07T08:14:11;100588.56;;;7.88;63.51
31044;BME280;17710;52.520;13.352;2022-12-07T08:16:39;100575.31;;;7.91;63.16
31044;BME280;17710;52.520;13.352;2022-12-07T08:19:06;100582.84;;;7.39;64.86
31044;BME280;17710;52.520;13.352;2022-12-07T08:21:33;100583.94;;;7.64;64.77
31044;BME280;17710;52.520;13.352;2022-12-07T08:24:00;100586.63;;;7.95;63.54
31044;BME280;17710;52.520;13.352;2022-12-07T08:26:26;100589.63;;;7.81;63.46
31044;BME280;17710;52.520;13.352;2022-12-07T08:28:53;100594.81;;;7.50;64.14
31044;BME280;17710;52.520;13.352;2022-12-07T08:31:19;100588.09;;;7.74;63.16
31044;BME280;17710;52.520;13.352;2022-12-07T08:33:48;100602.94;;;7.75;62.30
31044;BME280;17710;52.520;13.352;2022-12-07T08:36:15;100596.34;;;7.93;61.74
31044;BME280;17710;52.520;13.352;2022-12-07T08:38:45;100598.34;;;7.83;61.65
31044;BME280;17710;52.520;13.352;2022-12-07T08:41:12;100600.84;;;7.88;61.11
31044;BME280;17710;52.520;13.352;2022-12-07T08:43:38;100597.41;;;7.52;60.70
31044;BME280;17710;52.520;13.352;2022-12-07T08:46:08;100613.38;;;7.44;61.42
31044;BME280;17710;52.520;13.352;2022-12-07T08:48:39;100602.66;;;7.53;60.08
31044;BME280;17710;52.520;13.352;2022-12-07T08:51:08;100609.41;;;7.62;59.10
31044;BME280;17710;52.520;13.352;2022-12-07T08:53:35;100606.13;;;6.82;60.02
31044;BME280;17710;52.520;13.352;2022-12-07T08:56:03;100613.31;;;7.47;58.82
31044;BME280;17710;52.520;13.352;2022-12-07T08:58:31;100609.91;;;7.07;59.69
31044;BME280;17710;52.520;13.352;2022-12-07T09:00:58;100613.78;;;7.63;58.10
31044;BME280;17710;52.520;13.352;2022-12-07T09:03:24;100619.72;;;7.36;57.24
31044;BME280;17710;52.520;13.352;2022-12-07T09:05:52;100622.38;;;7.70;57.18
31044;BME280;17710;52.520;13.352;2022-12-07T09:08:20;100620.22;;;7.85;56.06
31044;BME280;17710;52.520;13.352;2022-12-07T09:10:47;100624.09;;;8.05;55.72
31044;BME280;17710;52.520;13.352;2022-12-07T09:13:14;100627.66;;;8.02;55.28
31044;BME280;17710;52.520;13.352;2022-12-07T09:15:41;100620.53;;;7.39;55.37
31044;BME280;17710;52.520;13.352;2022-12-07T09:18:07;100627.34;;;7.46;55.36
31044;BME280;17710;52.520;13.352;2022-12-07T09:20:34;100628.56;;;7.33;55.53
31044;BME280;17710;52.520;13.352;2022-12-07T09:23:00;100638.59;;;7.16;55.37
31044;BME280;17710;52.520;13.352;2022-12-07T09:25:28;100628.31;;;7.42;55.53
31044;BME280;17710;52.520;13.352;2022-12-07T09:27:58;100634.91;;;7.94;54.65
31044;BME280;17710;52.520;13.352;2022-12-07T09:30:25;100637.22;;;7.72;54.51
31044;BME280;17710;52.520;13.352;2022-12-07T09:32:53;100630.28;;;7.68;54.93
31044;BME280;17710;52.520;13.352;2022-12-07T09:35:20;100642.66;;;7.98;54.34
31044;BME280;17710;52.520;13.352;2022-12-07T09:37:47;100647.41;;;8.18;53.88
31044;BME280;17710;52.520;13.352;2022-12-07T09:40:14;100652.03;;;8.41;53.81
31044;BME280;17710;52.520;13.352;2022-12-07T09:42:47;100661.56;;;7.80;55.08
31044;BME280;17710;52.520;13.352;2022-12-07T09:45:18;100664.69;;;7.94;54.54
31044;BME280;17710;52.520;13.352;2022-12-07T09:47:45;100654.41;;;7.14;55.77
31044;BME280;17710;52.520;13.352;2022-12-07T09:50:14;100657.56;;;7.29;55.05
31044;BME280;17710;52.520;13.352;2022-12-07T09:52:43;100659.38;;;6.88;55.92
31044;BME280;17710;52.520;13.352;2022-12-07T09:55:14;100656.06;;;7.18;55.07
31044;BME280;17710;52.520;13.352;2022-12-07T09:57:43;100655.97;;;7.58;54.32
31044;BME280;17710;52.520;13.352;2022-12-07T10:00:13;100658.81;;;7.49;54.18
31044;BME280;17710;52.520;13.352;2022-12-07T10:02:41;100657.09;;;7.84;53.00
31044;BME280;17710;52.520;13.352;2022-12-07T10:05:13;100659.72;;;7.48;53.96
31044;BME280;17710;52.520;13.352;2022-12-07T10:07:40;100667.41;;;7.56;54.02
31044;BME280;17710;52.520;13.352;2022-12-07T10:10:15;100659.50;;;7.57;54.73
31044;BME280;17710;52.520;13.352;2022-12-07T10:12:57;100663.91;;;7.55;54.70
31044;BME280;17710;52.520;13.352;2022-12-07T10:15:41;100655.94;;;7.60;54.73
31044;BME280;17710;52.520;13.352;2022-12-07T10:18:18;100659.50;;;7.93;54.17
31044;BME280;17710;52.520;13.352;2022-12-07T10:20:45;100656.44;;;7.40;54.60
31044;BME280;17710;52.520;13.352;2022-12-07T10:23:14;100662.44;;;7.45;54.96
31044;BME280;17710;52.520;13.352;2022-12-07T10:25:41;100673.63;;;7.53;54.95
31044;BME280;17710;52.520;13.352;2022-12-07T10:28:15;100647.84;;;6.95;56.67
31044;BME280;17710;52.520;13.352;2022-12-07T10:30:55;100658.84;;;7.11;57.43
31044;BME280;17710;52.520;13.352;2022-12-07T10:33:33;100652.84;;;7.06;57.23
31044;BME280;17710;52.520;13.352;2022-12-07T10:36:01;100652.88;;;7.04;57.67
31044;BME280;17710;52.520;13.352;2022-12-07T10:38:44;100660.00;;;7.36;56.38
31044;BME280;17710;52.520;13.352;2022-12-07T10:41:11;100650.59;;;7.28;56.23
31044;BME280;17710;52.520;13.352;2022-12-07T10:43:46;100656.63;;;7.31;56.12
31044;BME280;17710;52.520;13.352;2022-12-07T10:46:26;100652.34;;;7.27;56.32
31044;BME280;17710;52.520;13.352;2022-12-07T10:49:05;100648.38;;;7.46;55.78
31044;BME280;17710;52.520;13.352;2022-12-07T10:51:41;100643.88;;;7.51;56.18
31044;BME280;17710;52.520;13.352;2022-12-07T10:54:16;100641.94;;;7.59;56.51
31044;BME280;17710;52.520;13.352;2022-12-07T10:56:58;100652.50;;;7.56;56.73
31044;BME280;17710;52.520;13.352;2022-12-07T10:59:43;100653.22;;;7.97;55.47
31044;BME280;17710;52.520;13.352;2022-12-07T11:02:26;100646.38;;;7.56;56.21
31044;BME280;17710;52.520;13.352;2022-12-07T11:05:06;100640.19;;;7.58;56.73
31044;BME280;17710;52.520;13.352;2022-12-07T11:07:45;100641.94;;;7.93;56.41
31044;BME280;17710;52.520;13.352;2022-12-07T11:10:18;100641.06;;;7.93;55.87
31044;BME280;17710;52.520;13.352;2022-12-07T11:13:04;100638.63;;;8.18;55.55
31044;BME280;17710;52.520;13.352;2022-12-07T11:15:50;100645.47;;;7.92;56.01
31044;BME280;17710;52.520;13.352;2022-12-07T11:18:24;100639.84;;;8.06;56.13
31044;BME280;17710;52.520;13.352;2022-12-07T11:20:58;100647.66;;;7.75;56.34
31044;BME280;17710;52.520;13.352;2022-12-07T11:23:37;100643.16;;;7.80;56.41
31044;BME280;17710;52.520;13.352;2022-12-07T11:26:13;100634.97;;;8.23;55.80
31044;BME280;17710;52.520;13.352;2022-12-07T11:29:02;100624.75;;;8.13;55.93
31044;BME280;17710;52.520;13.352;2022-12-07T11:31:36;100622.03;;;8.14;55.91
31044;BME280;17710;52.520;13.352;2022-12-07T11:34:10;100619.25;;;8.53;54.82
31044;BME280;17710;52.520;13.352;2022-12-07T11:36:42;100627.31;;;7.82;56.43
31044;BME280;17710;52.520;13.352;2022-12-07T11:39:19;100627.16;;;7.88;57.41
31044;BME280;17710;52.520;13.352;2022-12-07T11:41:51;100617.44;;;7.57;57.79
31044;BME280;17710;52.520;13.352;2022-12-07T11:44:27;100618.44;;;7.52;57.87
31044;BME280;17710;52.520;13.352;2022-12-07T11:47:03;100621.66;;;7.97;57.48
31044;BME280;17710;52.520;13.352;2022-12-07T11:49:40;100616.06;;;8.09;56.98
31044;BME280;17710;52.520;13.352;2022-12-07T11:52:17;100617.53;;;8.19;56.51
31044;BME280;17710;52.520;13.352;2022-12-07T11:54:47;100612.88;;;8.29;56.19
31044;BME280;17710;52.520;13.352;2022-12-07T11:57:20;100610.75;;;7.78;57.33
31044;BME280;17710;52.520;13.352;2022-12-07T11:59:52;100612.19;;;8.22;57.02
31044;BME280;17710;52.520;13.352;2022-12-07T12:02:28;100613.47;;;8.69;55.28
31044;BME280;17710;52.520;13.352;2022-12-07T12:05:02;100603.84;;;8.68;55.51
31044;BME280;17710;52.520;13.352;2022-12-07T12:07:33;100602.00;;;8.72;55.28
31044;BME280;17710;52.520;13.352;2022-12-07T12:10:04;100601.03;;;8.74;55.28
31044;BME280;17710;52.520;13.352;2022-12-07T12:12:46;100595.75;;;8.74;55.24
31044;BME280;17710;52.520;13.352;2022-12-07T12:15:23;100596.81;;;8.69;55.34
31044;BME280;17710;52.520;13.352;2022-12-07T12:18:06;100584.84;;;8.59;55.25
31044;BME280;17710;52.520;13.352;2022-12-07T12:20:40;100588.19;;;8.64;55.42
31044;BME280;17710;52.520;13.352;2022-12-07T12:23:12;100588.75;;;8.73;55.12
31044;BME280;17710;52.520;13.352;2022-12-07T12:25:42;100584.72;;;8.62;55.17
31044;BME280;17710;52.520;13.352;2022-12-07T12:28:22;100586.28;;;8.69;55.32
31044;BME280;17710;52.520;13.352;2022-12-07T12:31:12;100597.34;;;8.20;55.75
31044;BME280;17710;52.520;13.352;2022-12-07T12:33:44;100586.41;;;8.02;57.18
31044;BME280;17710;52.520;13.352;2022-12-07T12:36:24;100589.66;;;8.12;56.35
31044;BME280;17710;52.520;13.352;2022-12-07T12:39:08;100588.81;;;8.12;57.22
31044;BME280;17710;52.520;13.352;2022-12-07T12:41:58;100587.09;;;8.09;56.24
31044;BME280;17710;52.520;13.352;2022-12-07T12:47:55;100593.41;;;8.36;56.50
31044;BME280;17710;52.520;13.352;2022-12-07T12:50:29;100576.47;;;8.45;55.98
31044;BME280;17710;52.520;13.352;2022-12-07T12:53:03;100586.78;;;8.52;56.02
31044;BME280;17710;52.520;13.352;2022-12-07T12:56:10;100578.28;;;8.72;55.47
31044;BME280;17710;52.520;13.352;2022-12-07T12:58:42;100580.06;;;8.42;56.42
31044;BME280;17710;52.520;13.352;2022-12-07T13:01:39;100588.50;;;8.22;56.33
31044;BME280;17710;52.520;13.352;2022-12-07T13:04:26;100581.41;;;8.24;57.30
31044;BME280;17710;52.520;13.352;2022-12-07T13:06:55;100582.13;;;8.31;56.88
31044;BME280;17710;52.520;13.352;2022-12-07T13:09:24;100577.19;;;8.50;56.27
31044;BME280;17710;52.520;13.352;2022-12-07T13:11:58;100571.00;;;8.52;56.27
31044;BME280;17710;52.520;13.352;2022-12-07T13:14:54;100578.09;;;8.18;57.31